sensor_id;sensor_type;location;lat;lon;timestamp;pressure;altitude;pressure_sealevel;temperature;humidity
21760;BME280;11041;50.854;20.580;2023-03-16T00:02:12;98879.88;;;-1.55;84.70
21760;BME280;11041;50.854;20.580;2023-03-16T00:04:39;98877.41;;;-1.57;84.87
21760;BME280;11041;50.854;20.580;2023-03-16T00:07:09;98872.63;;;-1.55;84.98
21760;BME280;11041;50.854;20.580;2023-03-16T00:09:37;98881.41;;;-1.47;85.09
21760;BME280;11041;50.854;20.580;2023-03-16T00:12:15;98875.44;;;-1.50;85.04
21760;BME280;11041;50.854;20.580;2023-03-16T00:14:47;98894.56;;;-1.39;84.35
21760;BME280;11041;50.854;20.580;2023-03-16T00:17:18;98899.69;;;-1.38;84.55
21760;BME280;11041;50.854;20.580;2023-03-16T00:22:14;98891.84;;;-1.39;84.20
21760;BME280;11041;50.854;20.580;2023-03-16T00:24:42;98896.66;;;-1.41;84.14
21760;BME280;11041;50.854;20.580;2023-03-16T00:27:14;98897.94;;;-1.44;84.13
21760;BME280;11041;50.854;20.580;2023-03-16T00:29:46;98893.25;;;-1.48;84.57
21760;BME280;11041;50.854;20.580;2023-03-16T00:32:20;98894.53;;;-1.51;85.00
21760;BME280;11041;50.854;20.580;2023-03-16T00:34:47;98895.84;;;-1.54;84.77
21760;BME280;11041;50.854;20.580;2023-03-16T00:37:16;98886.56;;;-1.58;85.12
21760;BME280;11041;50.854;20.580;2023-03-16T00:39:44;98892.53;;;-1.56;84.75
21760;BME280;11041;50.854;20.580;2023-03-16T00:42:14;98891.56;;;-1.61;84.96
21760;BME280;11041;50.854;20.580;2023-03-16T00:44:42;98895.72;;;-1.59;84.78
21760;BME280;11041;50.854;20.580;2023-03-16T00:47:11;98898.03;;;-1.62;84.59
21760;BME280;11041;50.854;20.580;2023-03-16T00:49:43;98897.69;;;-1.66;85.09
21760;BME280;11041;50.854;20.580;2023-03-16T00:52:12;98888.75;;;-1.66;84.60
21760;BME280;11041;50.854;20.580;2023-03-16T00:54:44;98899.19;;;-1.70;85.14
21760;BME280;11041;50.854;20.580;2023-03-16T00:57:14;98896.69;;;-1.83;84.54
21760;BME280;11041;50.854;20.580;2023-03-16T00:59:44;98896.34;;;-1.87;84.90
21760;BME280;11041;50.854;20.580;2023-03-16T01:02:12;98901.75;;;-1.87;84.99
21760;BME280;11041;50.854;20.580;2023-03-16T01:04:40;98899.28;;;-1.88;84.92
21760;BME280;11041;50.854;20.580;2023-03-16T01:07:09;98898.06;;;-1.93;85.28
21760;BME280;11041;50.854;20.580;2023-03-16T01:09:39;98906.16;;;-1.93;84.60
21760;BME280;11041;50.854;20.580;2023-03-16T01:12:16;98897.81;;;-2.03;84.71
21760;BME280;11041;50.854;20.580;2023-03-16T01:14:44;98906.59;;;-2.07;84.95
21760;BME280;11041;50.854;20.580;2023-03-16T01:17:15;98907.53;;;-2.13;85.06
21760;BME280;11041;50.854;20.580;2023-03-16T01:19:44;98914.53;;;-2.12;85.44
21760;BME280;11041;50.854;20.580;2023-03-16T01:22:11;98907.22;;;-2.24;85.11
21760;BME280;11041;50.854;20.580;2023-03-16T01:24:39;98914.50;;;-2.24;85.12
21760;BME280;11041;50.854;20.580;2023-03-16T01:27:07;98911.66;;;-2.29;85.55
21760;BME280;11041;50.854;20.580;2023-03-16T01:29:35;98918.47;;;-2.27;85.57
21760;BME280;11041;50.854;20.580;2023-03-16T01:32:02;98917.44;;;-2.26;85.30
21760;BME280;11041;50.854;20.580;2023-03-16T01:34:29;98917.44;;;-2.26;86.36
21760;BME280;11041;50.854;20.580;2023-03-16T01:36:57;98919.81;;;-2.36;86.24
21760;BME280;11041;50.854;20.580;2023-03-16T01:39:24;98930.22;;;-2.40;86.49
21760;BME280;11041;50.854;20.580;2023-03-16T01:41:50;98927.41;;;-2.45;87.37
21760;BME280;11041;50.854;20.580;2023-03-16T01:44:23;98941.88;;;-2.46;87.36
21760;BME280;11041;50.854;20.580;2023-03-16T01:46:56;98924.41;;;-2.55;87.87
21760;BME280;11041;50.854;20.580;2023-03-16T01:49:31;98936.97;;;-2.49;88.15
21760;BME280;11041;50.854;20.580;2023-03-16T02:06:07;98948.31;;;-2.47;88.41
21760;BME280;11041;50.854;20.580;2023-03-16T02:08:38;98943.81;;;-2.53;88.10
21760;BME280;11041;50.854;20.580;2023-03-16T02:11:08;98957.66;;;-2.49;88.30
21760;BME280;11041;50.854;20.580;2023-03-16T02:13:35;98943.97;;;-2.48;88.74
21760;BME280;11041;50.854;20.580;2023-03-16T02:16:07;98954.72;;;-2.48;88.50
21760;BME280;11041;50.854;20.580;2023-03-16T02:18:35;98956.00;;;-2.50;87.71
21760;BME280;11041;50.854;20.580;2023-03-16T02:24:05;98960.56;;;-2.51;87.83
21760;BME280;11041;50.854;20.580;2023-03-16T02:27:00;98967.00;;;-2.52;88.31
21760;BME280;11041;50.854;20.580;2023-03-16T02:29:52;98974.03;;;-2.51;88.45
21760;BME280;11041;50.854;20.580;2023-03-16T02:32:24;98962.25;;;-2.50;88.45
21760;BME280;11041;50.854;20.580;2023-03-16T02:34:54;98972.16;;;-2.50;88.16
21760;BME280;11041;50.854;20.580;2023-03-16T02:37:21;98979.88;;;-2.54;87.83
21760;BME280;11041;50.854;20.580;2023-03-16T02:39:48;98976.34;;;-2.54;88.34
21760;BME280;11041;50.854;20.580;2023-03-16T02:42:19;98972.69;;;-2.60;87.92
21760;BME280;11041;50.854;20.580;2023-03-16T02:44:53;98974.34;;;-2.59;88.09
21760;BME280;11041;50.854;20.580;2023-03-16T02:47:40;98982.16;;;-2.58;88.03
21760;BME280;11041;50.854;20.580;2023-03-16T02:50:11;98982.25;;;-2.64;87.80
21760;BME280;11041;50.854;20.580;2023-03-16T02:52:38;98980.09;;;-2.74;88.09
21760;BME280;11041;50.854;20.580;2023-03-16T02:55:07;98982.25;;;-2.83;88.63
21760;BME280;11041;50.854;20.580;2023-03-16T02:57:34;98992.78;;;-2.81;88.37
21760;BME280;11041;50.854;20.580;2023-03-16T03:00:01;98992.25;;;-2.90;89.23
21760;BME280;11041;50.854;20.580;2023-03-16T03:02:36;98995.81;;;-2.96;88.95
21760;BME280;11041;50.854;20.580;2023-03-16T03:05:02;99000.00;;;-3.00;89.62
21760;BME280;11041;50.854;20.580;2023-03-16T03:07:29;99011.63;;;-3.06;89.94
21760;BME280;11041;50.854;20.580;2023-03-16T03:09:57;99005.03;;;-3.10;89.82
21760;BME280;11041;50.854;20.580;2023-03-16T03:12:24;99003.84;;;-3.14;90.31
21760;BME280;11041;50.854;20.580;2023-03-16T03:14:51;99008.63;;;-3.16;89.74
21760;BME280;11041;50.854;20.580;2023-03-16T03:17:17;98992.31;;;-3.22;90.06
21760;BME280;11041;50.854;20.580;2023-03-16T03:19:44;99011.75;;;-3.19;89.85
21760;BME280;11041;50.854;20.580;2023-03-16T03:22:11;99011.59;;;-3.25;90.63
21760;BME280;11041;50.854;20.580;2023-03-16T03:24:43;99017.53;;;-3.23;90.73
21760;BME280;11041;50.854;20.580;2023-03-16T03:27:10;99012.81;;;-3.27;90.78
21760;BME280;11041;50.854;20.580;2023-03-16T03:29:36;99015.50;;;-3.27;90.56
21760;BME280;11041;50.854;20.580;2023-03-16T03:32:04;99023.81;;;-3.29;90.55
21760;BME280;11041;50.854;20.580;2023-03-16T03:34:31;99029.56;;;-3.25;91.30
21760;BME280;11041;50.854;20.580;2023-03-16T03:36:59;99030.59;;;-3.26;90.39
21760;BME280;11041;50.854;20.580;2023-03-16T03:39:26;99028.75;;;-3.26;90.85
21760;BME280;11041;50.854;20.580;2023-03-16T03:41:52;99032.84;;;-3.23;90.94
21760;BME280;11041;50.854;20.580;2023-03-16T03:44:21;99040.69;;;-3.22;91.33
21760;BME280;11041;50.854;20.580;2023-03-16T03:46:49;99047.75;;;-3.27;90.88
21760;BME280;11041;50.854;20.580;2023-03-16T03:49:16;99049.00;;;-3.30;90.73
21760;BME280;11041;50.854;20.580;2023-03-16T03:51:43;99045.13;;;-3.34;90.42
21760;BME280;11041;50.854;20.580;2023-03-16T03:54:10;99045.56;;;-3.37;90.66
21760;BME280;11041;50.854;20.580;2023-03-16T03:56:36;99047.69;;;-3.46;90.88
21760;BME280;11041;50.854;20.580;2023-03-16T03:59:03;99043.59;;;-3.48;91.05
21760;BME280;11041;50.854;20.580;2023-03-16T04:01:29;99042.56;;;-3.54;91.04
21760;BME280;11041;50.854;20.580;2023-03-16T04:03:56;99046.75;;;-3.58;91.59
21760;BME280;11041;50.854;20.580;2023-03-16T04:06:23;99057.88;;;-3.54;91.71
21760;BME280;11041;50.854;20.580;2023-03-16T04:08:49;99056.59;;;-3.52;91.35
21760;BME280;11041;50.854;20.580;2023-03-16T04:11:16;99065.47;;;-3.51;91.61
21760;BME280;11041;50.854;20.580;2023-03-16T04:13:43;99056.84;;;-3.53;91.44
21760;BME280;11041;50.854;20.580;2023-03-16T04:16:09;99066.94;;;-3.49;91.46
21760;BME280;11041;50.854;20.580;2023-03-16T04:18:36;99073.53;;;-3.51;91.56
21760;BME280;11041;50.854;20.580;2023-03-16T04:21:07;99077.91;;;-3.50;91.72
21760;BME280;11041;50.854;20.580;2023-03-16T04:23:37;99073.53;;;-3.51;91.00
21760;BME280;11041;50.854;20.580;2023-03-16T04:26:04;99077.91;;;-3.50;91.45
21760;BME280;11041;50.854;20.580;2023-03-16T04:28:31;99072.72;;;-3.52;91.35
21760;BME280;11041;50.854;20.580;2023-03-16T04:31:02;99078.91;;;-3.51;91.05
21760;BME280;11041;50.854;20.580;2023-03-16T04:33:30;99076.47;;;-3.53;90.92
21760;BME280;11041;50.854;20.580;2023-03-16T04:35:58;99088.44;;;-3.49;91.09
21760;BME280;11041;50.854;20.580;2023-03-16T04:38:25;99088.19;;;-3.47;90.70
21760;BME280;11041;50.854;20.580;2023-03-16T04:40:51;99095.88;;;-3.51;90.61
21760;BME280;11041;50.854;20.580;2023-03-16T04:43:18;99085.97;;;-3.57;90.98
21760;BME280;11041;50.854;20.580;2023-03-16T04:45:48;99088.06;;;-3.59;90.81
21760;BME280;11041;50.854;20.580;2023-03-16T04:48:16;99087.25;;;-3.59;91.50
21760;BME280;11041;50.854;20.580;2023-03-16T04:50:43;99095.91;;;-3.57;91.62
21760;BME280;11041;50.854;20.580;2023-03-16T04:53:09;99096.94;;;-3.58;91.61
21760;BME280;11041;50.854;20.580;2023-03-16T04:55:35;99090.13;;;-3.61;92.15
21760;BME280;11041;50.854;20.580;2023-03-16T04:58:02;99085.81;;;-3.62;91.65
21760;BME280;11041;50.854;20.580;2023-03-16T05:00:29;99095.31;;;-3.59;91.64
21760;BME280;11041;50.854;20.580;2023-03-16T05:02:55;99092.63;;;-3.59;91.56
21760;BME280;11041;50.854;20.580;2023-03-16T05:05:22;99099.63;;;-3.58;91.72
21760;BME280;11041;50.854;20.580;2023-03-16T05:07:51;99098.41;;;-3.56;92.11
21760;BME280;11041;50.854;20.580;2023-03-16T05:10:18;99085.59;;;-3.60;91.19
21760;BME280;11041;50.854;20.580;2023-03-16T05:12:45;99090.38;;;-3.62;91.15
21760;BME280;11041;50.854;20.580;2023-03-16T05:15:11;99100.66;;;-3.59;90.93
21760;BME280;11041;50.854;20.580;2023-03-16T05:17:40;99097.97;;;-3.59;91.66
21760;BME280;11041;50.854;20.580;2023-03-16T05:20:10;99094.91;;;-3.63;91.06
21760;BME280;11041;50.854;20.580;2023-03-16T05:22:43;99108.28;;;-3.56;90.96
21760;BME280;11041;50.854;20.580;2023-03-16T05:25:11;99101.28;;;-3.57;91.43
21760;BME280;11041;50.854;20.580;2023-03-16T05:27:42;99111.16;;;-3.51;91.37
21760;BME280;11041;50.854;20.580;2023-03-16T05:30:11;99106.41;;;-3.49;91.42
21760;BME280;11041;50.854;20.580;2023-03-16T05:32:38;99110.75;;;-3.48;91.17
21760;BME280;11041;50.854;20.580;2023-03-16T05:35:06;99108.22;;;-3.43;91.75
21760;BME280;11041;50.854;20.580;2023-03-16T05:37:33;99123.69;;;-3.32;91.68
21760;BME280;11041;50.854;20.580;2023-03-16T05:40:09;99113.91;;;-3.26;92.24
21760;BME280;11041;50.854;20.580;2023-03-16T05:42:48;99117.22;;;-3.24;91.65
21760;BME280;11041;50.854;20.580;2023-03-16T05:45:16;99127.03;;;-3.11;92.18
21760;BME280;11041;50.854;20.580;2023-03-16T05:47:43;99122.06;;;-3.08;92.32
21760;BME280;11041;50.854;20.580;2023-03-16T05:50:12;99126.13;;;-2.98;91.63
21760;BME280;11041;50.854;20.580;2023-03-16T05:52:43;99126.91;;;-2.91;92.04
21760;BME280;11041;50.854;20.580;2023-03-16T05:55:12;99134.47;;;-2.82;91.81
21760;BME280;11041;50.854;20.580;2023-03-16T05:57:40;99138.38;;;-2.78;92.00
21760;BME280;11041;50.854;20.580;2023-03-16T06:00:11;99142.44;;;-2.68;91.73
21760;BME280;11041;50.854;20.580;2023-03-16T06:02:45;99133.31;;;-2.67;91.57
21760;BME280;11041;50.854;20.580;2023-03-16T06:05:14;99146.06;;;-2.56;91.74
21760;BME280;11041;50.854;20.580;2023-03-16T06:07:42;99149.31;;;-2.47;92.09
21760;BME280;11041;50.854;20.580;2023-03-16T06:10:10;99156.88;;;-2.38;92.15
21760;BME280;11041;50.854;20.580;2023-03-16T06:12:39;99156.00;;;-2.31;92.26
21760;BME280;11041;50.854;20.580;2023-03-16T06:15:07;99157.00;;;-2.26;91.79
21760;BME280;11041;50.854;20.580;2023-03-16T06:17:37;99149.50;;;-2.24;91.80
21760;BME280;11041;50.854;20.580;2023-03-16T06:20:08;99160.59;;;-2.13;91.75
21760;BME280;11041;50.854;20.580;2023-03-16T06:22:38;99157.81;;;-2.07;92.09
21760;BME280;11041;50.854;20.580;2023-03-16T06:25:09;99164.81;;;-1.99;92.00
21760;BME280;11041;50.854;20.580;2023-03-16T06:27:37;99169.13;;;-1.98;91.26
21760;BME280;11041;50.854;20.580;2023-03-16T06:30:06;99161.25;;;-2.00;91.52
21760;BME280;11041;50.854;20.580;2023-03-16T06:32:34;99169.06;;;-1.91;92.30
21760;BME280;11041;50.854;20.580;2023-03-16T06:35:01;99162.41;;;-1.89;91.97
21760;BME280;11041;50.854;20.580;2023-03-16T06:37:29;99166.06;;;-1.83;92.26
21760;BME280;11041;50.854;20.580;2023-03-16T06:39:57;99164.34;;;-1.78;92.35
21760;BME280;11041;50.854;20.580;2023-03-16T06:42:25;99159.72;;;-1.70;91.70
21760;BME280;11041;50.854;20.580;2023-03-16T06:44:51;99175.97;;;-1.59;91.88
21760;BME280;11041;50.854;20.580;2023-03-16T06:47:19;99186.28;;;-1.56;92.23
21760;BME280;11041;50.854;20.580;2023-03-16T06:49:46;99175.50;;;-1.56;91.97
21760;BME280;11041;50.854;20.580;2023-03-16T06:52:13;99179.81;;;-1.55;91.59
21760;BME280;11041;50.854;20.580;2023-03-16T06:54:40;99190.31;;;-1.46;92.03
21760;BME280;11041;50.854;20.580;2023-03-16T06:57:07;99191.63;;;-1.37;91.71
21760;BME280;11041;50.854;20.580;2023-03-16T06:59:34;99189.91;;;-1.32;92.21
21760;BME280;11041;50.854;20.580;2023-03-16T07:02:01;99190.88;;;-1.26;91.85
21760;BME280;11041;50.854;20.580;2023-03-16T07:04:42;99193.03;;;-1.16;91.60
21760;BME280;11041;50.854;20.580;2023-03-16T07:07:09;99189.66;;;-1.12;91.74
21760;BME280;11041;50.854;20.580;2023-03-16T07:09:37;99205.66;;;-0.98;91.68
21760;BME280;11041;50.854;20.580;2023-03-16T07:12:04;99197.56;;;-0.98;91.44
21760;BME280;11041;50.854;20.580;2023-03-16T07:14:31;99201.44;;;-0.94;90.99
21760;BME280;11041;50.854;20.580;2023-03-16T07:16:57;99211.72;;;-0.73;90.06
21760;BME280;11041;50.854;20.580;2023-03-16T07:19:24;99206.31;;;-0.73;89.63
21760;BME280;11041;50.854;20.580;2023-03-16T07:21:51;99209.75;;;-0.66;89.14
21760;BME280;11041;50.854;20.580;2023-03-16T07:24:18;99216.34;;;-0.61;89.40
21760;BME280;11041;50.854;20.580;2023-03-16T07:26:45;99216.25;;;-0.55;89.38
21760;BME280;11041;50.854;20.580;2023-03-16T07:29:12;99211.91;;;-0.44;88.70
21760;BME280;11041;50.854;20.580;2023-03-16T07:31:39;99204.19;;;-0.40;88.70
21760;BME280;11041;50.854;20.580;2023-03-16T07:34:06;99202.31;;;-0.28;88.24
21760;BME280;11041;50.854;20.580;2023-03-16T07:36:33;99211.72;;;-0.19;88.63
21760;BME280;11041;50.854;20.580;2023-03-16T07:39:00;99199.38;;;-0.15;89.07
21760;BME280;11041;50.854;20.580;2023-03-16T07:41:27;99219.09;;;0.09;87.66
21760;BME280;11041;50.854;20.580;2023-03-16T07:43:54;99217.47;;;0.20;86.22
21760;BME280;11041;50.854;20.580;2023-03-16T07:46:21;99223.47;;;0.34;84.83
21760;BME280;11041;50.854;20.580;2023-03-16T07:49:12;99219.31;;;0.43;85.04
21760;BME280;11041;50.854;20.580;2023-03-16T07:52:03;99204.97;;;0.42;84.42
21760;BME280;11041;50.854;20.580;2023-03-16T07:54:55;99208.28;;;0.45;84.83
21760;BME280;11041;50.854;20.580;2023-03-16T07:57:54;99201.75;;;0.57;83.61
21760;BME280;11041;50.854;20.580;2023-03-16T08:00:22;99203.63;;;0.69;83.73
21760;BME280;11041;50.854;20.580;2023-03-16T08:02:50;99210.00;;;0.91;81.74
21760;BME280;11041;50.854;20.580;2023-03-16T08:05:18;99206.69;;;1.01;81.23
21760;BME280;11041;50.854;20.580;2023-03-16T08:07:44;99207.84;;;1.05;81.05
21760;BME280;11041;50.854;20.580;2023-03-16T08:10:12;99202.63;;;1.15;80.40
21760;BME280;11041;50.854;20.580;2023-03-16T08:12:38;99212.81;;;1.25;80.09
21760;BME280;11041;50.854;20.580;2023-03-16T08:15:06;99211.56;;;1.44;79.45
21760;BME280;11041;50.854;20.580;2023-03-16T08:17:33;99221.31;;;1.45;77.66
21760;BME280;11041;50.854;20.580;2023-03-16T08:20:00;99215.75;;;1.52;78.31
21760;BME280;11041;50.854;20.580;2023-03-16T08:22:26;99213.34;;;1.56;78.69
21760;BME280;11041;50.854;20.580;2023-03-16T08:24:53;99226.16;;;1.60;76.98
21760;BME280;11041;50.854;20.580;2023-03-16T08:27:20;99221.66;;;1.66;75.41
21760;BME280;11041;50.854;20.580;2023-03-16T08:29:51;99225.78;;;1.68;74.00
21760;BME280;11041;50.854;20.580;2023-03-16T08:32:17;99225.13;;;1.61;74.59
21760;BME280;11041;50.854;20.580;2023-03-16T08:34:45;99225.88;;;1.74;74.14
21760;BME280;11041;50.854;20.580;2023-03-16T08:37:13;99228.22;;;1.87;73.95
21760;BME280;11041;50.854;20.580;2023-03-16T08:39:42;99236.44;;;1.92;73.43
21760;BME280;11041;50.854;20.580;2023-03-16T08:42:09;99218.47;;;2.03;74.11
21760;BME280;11041;50.854;20.580;2023-03-16T08:44:36;99223.06;;;2.19;73.31
21760;BME280;11041;50.854;20.580;2023-03-16T08:47:03;99225.25;;;2.22;72.96
21760;BME280;11041;50.854;20.580;2023-03-16T08:49:30;99236.69;;;2.24;71.62
21760;BME280;11041;50.854;20.580;2023-03-16T08:51:57;99236.19;;;2.27;71.68
21760;BME280;11041;50.854;20.580;2023-03-16T08:54:25;99238.00;;;2.22;70.91
21760;BME280;11041;50.854;20.580;2023-03-16T08:56:52;99229.53;;;2.18;69.65
21760;BME280;11041;50.854;20.580;2023-03-16T08:59:19;99240.38;;;2.18;68.50
21760;BME280;11041;50.854;20.580;2023-03-16T09:01:45;99236.84;;;2.18;66.85
21760;BME280;11041;50.854;20.580;2023-03-16T09:04:12;99239.53;;;2.34;68.10
21760;BME280;11041;50.854;20.580;2023-03-16T09:06:38;99239.59;;;2.40;68.54
21760;BME280;11041;50.854;20.580;2023-03-16T09:09:05;99244.84;;;2.46;68.22
21760;BME280;11041;50.854;20.580;2023-03-16T09:11:34;99242.72;;;2.48;67.13
21760;BME280;11041;50.854;20.580;2023-03-16T09:14:01;99244.47;;;2.60;65.70
21760;BME280;11041;50.854;20.580;2023-03-16T09:16:27;99244.06;;;2.68;65.46
21760;BME280;11041;50.854;20.580;2023-03-16T09:18:57;99243.03;;;2.74;66.42
21760;BME280;11041;50.854;20.580;2023-03-16T09:21:23;99247.22;;;2.82;66.48
21760;BME280;11041;50.854;20.580;2023-03-16T09:23:51;99258.16;;;2.87;66.10
21760;BME280;11041;50.854;20.580;2023-03-16T09:26:17;99243.75;;;2.86;65.70
21760;BME280;11041;50.854;20.580;2023-03-16T09:28:44;99246.03;;;2.94;66.12
21760;BME280;11041;50.854;20.580;2023-03-16T09:31:18;99243.19;;;3.06;65.93
21760;BME280;11041;50.854;20.580;2023-03-16T09:33:46;99244.84;;;3.12;65.31
21760;BME280;11041;50.854;20.580;2023-03-16T09:36:13;99237.56;;;3.13;64.75
21760;BME280;11041;50.854;20.580;2023-03-16T09:38:41;99236.00;;;3.22;65.16
21760;BME280;11041;50.854;20.580;2023-03-16T09:41:45;99251.72;;;3.42;62.45
21760;BME280;11041;50.854;20.580;2023-03-16T09:47:12;99254.34;;;3.59;59.29
21760;BME280;11041;50.854;20.580;2023-03-16T09:49:48;99254.81;;;3.56;59.64
21760;BME280;11041;50.854;20.580;2023-03-16T09:55:30;99254.72;;;3.73;60.48
21760;BME280;11041;50.854;20.580;2023-03-16T09:58:00;99258.59;;;3.82;60.28
21760;BME280;11041;50.854;20.580;2023-03-16T10:00:37;99259.25;;;3.94;60.12
21760;BME280;11041;50.854;20.580;2023-03-16T10:05:44;99263.75;;;4.11;59.04
21760;BME280;11041;50.854;20.580;2023-03-16T10:08:53;99274.56;;;4.05;59.71
21760;BME280;11041;50.854;20.580;2023-03-16T10:11:41;99271.75;;;3.90;59.80
21760;BME280;11041;50.854;20.580;2023-03-16T10:17:05;99261.84;;;3.79;61.14
21760;BME280;11041;50.854;20.580;2023-03-16T10:19:47;99254.34;;;3.91;60.90
21760;BME280;11041;50.854;20.580;2023-03-16T10:22:25;99265.84;;;4.03;59.23
21760;BME280;11041;50.854;20.580;2023-03-16T10:27:36;99256.53;;;4.26;56.35
21760;BME280;11041;50.854;20.580;2023-03-16T10:32:51;99251.13;;;4.32;56.07
21760;BME280;11041;50.854;20.580;2023-03-16T10:43:48;99261.69;;;4.28;55.71
21760;BME280;11041;50.854;20.580;2023-03-16T10:46:14;99263.28;;;4.19;55.64
21760;BME280;11041;50.854;20.580;2023-03-16T10:48:42;99268.19;;;4.22;56.53
21760;BME280;11041;50.854;20.580;2023-03-16T10:51:18;99266.09;;;4.34;54.36
21760;BME280;11041;50.854;20.580;2023-03-16T10:53:51;99261.16;;;4.26;54.99
21760;BME280;11041;50.854;20.580;2023-03-16T10:56:23;99265.91;;;4.46;54.17
21760;BME280;11041;50.854;20.580;2023-03-16T10:58:53;99258.59;;;4.57;53.22
21760;BME280;11041;50.854;20.580;2023-03-16T11:01:28;99259.53;;;4.78;50.47
21760;BME280;11041;50.854;20.580;2023-03-16T11:03:57;99249.81;;;4.97;50.95
21760;BME280;11041;50.854;20.580;2023-03-16T11:06:28;99252.63;;;5.18;48.81
21760;BME280;11041;50.854;20.580;2023-03-16T11:09:13;99264.38;;;5.33;47.45
21760;BME280;11041;50.854;20.580;2023-03-16T11:11:48;99265.94;;;5.09;47.89
21760;BME280;11041;50.854;20.580;2023-03-16T11:14:21;99259.94;;;5.07;46.75
21760;BME280;11041;50.854;20.580;2023-03-16T11:17:05;99255.28;;;5.02;48.80
21760;BME280;11041;50.854;20.580;2023-03-16T11:20:03;99253.72;;;5.17;48.35
21760;BME280;11041;50.854;20.580;2023-03-16T11:22:39;99257.06;;;5.44;47.67
21760;BME280;11041;50.854;20.580;2023-03-16T11:25:20;99256.78;;;5.46;47.43
21760;BME280;11041;50.854;20.580;2023-03-16T11:28:31;99257.88;;;5.40;47.16
21760;BME280;11041;50.854;20.580;2023-03-16T11:31:18;99259.47;;;5.20;46.73
21760;BME280;11041;50.854;20.580;2023-03-16T11:33:46;99257.88;;;5.40;45.87
21760;BME280;11041;50.854;20.580;2023-03-16T11:36:37;99253.00;;;5.52;45.07
21760;BME280;11041;50.854;20.580;2023-03-16T11:39:36;99249.38;;;5.26;47.77
21760;BME280;11041;50.854;20.580;2023-03-16T11:42:32;99249.06;;;5.12;46.27
21760;BME280;11041;50.854;20.580;2023-03-16T11:45:29;99253.75;;;5.27;46.59
21760;BME280;11041;50.854;20.580;2023-03-16T11:51:14;99255.16;;;5.50;45.61
21760;BME280;11041;50.854;20.580;2023-03-16T12:09:44;99248.25;;;5.17;48.33
21760;BME280;11041;50.854;20.580;2023-03-16T12:12:03;99252.56;;;4.97;48.59
21760;BME280;11041;50.854;20.580;2023-03-16T12:14:46;99237.78;;;4.83;48.75
21760;BME280;11041;50.854;20.580;2023-03-16T12:17:25;99249.00;;;4.97;49.20
21760;BME280;11041;50.854;20.580;2023-03-16T12:20:04;99241.31;;;4.83;49.83
21760;BME280;11041;50.854;20.580;2023-03-16T12:22:45;99246.28;;;4.91;49.04
21760;BME280;11041;50.854;20.580;2023-03-16T12:25:26;99249.59;;;5.04;49.89
21760;BME280;11041;50.854;20.580;2023-03-16T12:27:59;99249.03;;;5.02;50.03
21760;BME280;11041;50.854;20.580;2023-03-16T12:41:37;99249.16;;;5.48;48.29
21760;BME280;11041;50.854;20.580;2023-03-16T12:49:37;99254.84;;;5.31;48.58
21760;BME280;11041;50.854;20.580;2023-03-16T12:52:11;99260.84;;;5.33;49.42
21760;BME280;11041;50.854;20.580;2023-03-16T12:54:55;99255.94;;;5.30;48.50
21760;BME280;11041;50.854;20.580;2023-03-16T12:57:31;99260.84;;;5.28;48.69
21760;BME280;11041;50.854;20.580;2023-03-16T13:00:00;99269.81;;;5.28;49.34
21760;BME280;11041;50.854;20.580;2023-03-16T13:02:35;99271.75;;;5.33;49.53
21760;BME280;11041;50.854;20.580;2023-03-16T13:05:14;99272.00;;;5.31;50.20
21760;BME280;11041;50.854;20.580;2023-03-16T13:08:11;99264.66;;;5.27;49.74
21760;BME280;11041;50.854;20.580;2023-03-16T13:10:39;99281.34;;;5.51;49.19
21760;BME280;11041;50.854;20.580;2023-03-16T13:13:14;99259.88;;;5.85;49.00
21760;BME280;11041;50.854;20.580;2023-03-16T13:15:43;99263.16;;;6.03;48.73
21760;BME280;11041;50.854;20.580;2023-03-16T13:23:18;99268.06;;;5.95;47.91
21760;BME280;11041;50.854;20.580;2023-03-16T13:26:17;99269.09;;;5.64;48.89
21760;BME280;11041;50.854;20.580;2023-03-16T13:28:53;99269.59;;;5.45;48.57
21760;BME280;11041;50.854;20.580;2023-03-16T13:31:40;99269.91;;;5.54;49.76
21760;BME280;11041;50.854;20.580;2023-03-16T13:34:14;99267.75;;;5.71;50.14
21760;BME280;11041;50.854;20.580;2023-03-16T13:36:46;99269.38;;;5.67;50.15
21760;BME280;11041;50.854;20.580;2023-03-16T13:39:22;99255.19;;;5.55;49.86
21760;BME280;11041;50.854;20.580;2023-03-16T13:44:25;99272.41;;;5.91;49.43
21760;BME280;11041;50.854;20.580;2023-03-16T13:46:52;99257.44;;;6.09;47.21
21760;BME280;11041;50.854;20.580;2023-03-16T13:49:19;99260.72;;;6.16;47.95
21760;BME280;11041;50.854;20.580;2023-03-16T13:51:47;99270.81;;;6.06;48.47
21760;BME280;11041;50.854;20.580;2023-03-16T13:54:27;99269.97;;;6.15;45.82
21760;BME280;11041;50.854;20.580;2023-03-16T13:57:01;99255.81;;;6.24;44.99
21760;BME280;11041;50.854;20.580;2023-03-16T13:59:29;99244.34;;;6.27;46.52
21760;BME280;11041;50.854;20.580;2023-03-16T14:01:59;99243.22;;;6.43;45.84
21760;BME280;11041;50.854;20.580;2023-03-16T14:04:31;99248.41;;;6.39;46.16
21760;BME280;11041;50.854;20.580;2023-03-16T14:07:02;99256.34;;;6.36;45.10
21760;BME280;11041;50.854;20.580;2023-03-16T14:09:34;99252.78;;;6.25;46.13
21760;BME280;11041;50.854;20.580;2023-03-16T14:12:01;99262.34;;;6.28;45.21
21760;BME280;11041;50.854;20.580;2023-03-16T14:14:39;99259.63;;;6.17;44.88
21760;BME280;11041;50.854;20.580;2023-03-16T14:17:17;99266.19;;;6.06;45.44
21760;BME280;11041;50.854;20.580;2023-03-16T14:19:58;99260.69;;;5.86;45.04
21760;BME280;11041;50.854;20.580;2023-03-16T14:22:36;99275.13;;;5.76;45.61
21760;BME280;11041;50.854;20.580;2023-03-16T14:25:05;99281.38;;;5.82;45.99
21760;BME280;11041;50.854;20.580;2023-03-16T14:27:44;99277.84;;;5.76;46.39
21760;BME280;11041;50.854;20.580;2023-03-16T14:30:19;99283.56;;;5.69;47.11
21760;BME280;11041;50.854;20.580;2023-03-16T14:32:59;99287.63;;;5.57;47.00
21760;BME280;11041;50.854;20.580;2023-03-16T14:35:29;99268.78;;;5.50;47.96
21760;BME280;11041;50.854;20.580;2023-03-16T14:38:36;99271.25;;;5.46;48.27
21760;BME280;11041;50.854;20.580;2023-03-16T14:43:46;99276.47;;;5.63;48.51
21760;BME280;11041;50.854;20.580;2023-03-16T14:46:38;99268.00;;;5.65;48.17
21760;BME280;11041;50.854;20.580;2023-03-16T14:49:36;99273.75;;;5.73;47.32